Time;durP1;ratioP1;P1;durP2;ratioP2;P2;SDS_P1;SDS_P2;PMS_P1;PMS_P2;Temp;Humidity;BMP_temperature;BMP_pressure;BME280_temperature;BME280_humidity;BME280_pressure;Samples;Min_cycle;Max_cycle;Signal;HPM_P1;HPM_P2
2023/02/23 00:00:55;;;;;;;36.65;19.70;;;;;;;;;;5072376;28;20024;-65
2023/02/23 00:03:21;;;;;;;36.15;19.60;;;;;;;;;;5072115;28;20480;-61
2023/02/23 00:05:47;;;;;;;39.65;22.23;;;;;;;;;;5072193;28;20090;-60
2023/02/23 00:08:13;;;;;;;43.80;22.27;;;;;;;;;;5072777;28;20461;-72
2023/02/23 00:10:39;;;;;;;42.45;22.50;;;;;;;;;;5072066;28;20109;-58
2023/02/23 00:13:05;;;;;;;39.92;21.17;;;;;;;;;;5072175;28;20025;-59
2023/02/23 00:15:31;;;;;;;45.45;22.42;;;;;;;;;;5072051;28;20032;-63
2023/02/23 00:17:57;;;;;;;36.00;20.15;;;;;;;;;;5072214;28;20035;-58
2023/02/23 00:20:26;;;;;;;39.90;21.05;;;;;;;;;;5071742;28;20026;-69
2023/02/23 00:22:56;;;;;;;32.63;19.70;;;;;;;;;;5072042;28;20027;-58
2023/02/23 00:25:24;;;;;;;39.28;21.33;;;;;;;;;;5072320;28;20115;-71
2023/02/23 00:27:51;;;;;;;35.85;21.20;;;;;;;;;;5071676;28;20068;-61
2023/02/23 00:30:17;;;;;;;32.00;20.25;;;;;;;;;;5071637;28;20024;-58
2023/02/23 00:32:44;;;;;;;39.90;21.67;;;;;;;;;;5072028;28;20455;-58
2023/02/23 00:35:16;;;;;;;38.22;22.30;;;;;;;;;;5071031;28;20028;-64
2023/02/23 00:37:51;;;;;;;44.47;25.48;;;;;;;;;;5071484;28;20027;-67
2023/02/23 00:40:20;;;;;;;43.08;23.88;;;;;;;;;;5071542;28;20029;-58
2023/02/23 00:42:46;;;;;;;39.92;23.60;;;;;;;;;;5071584;28;20030;-58
2023/02/23 00:45:13;;;;;;;40.42;23.15;;;;;;;;;;5071413;28;20099;-58
2023/02/23 00:47:41;;;;;;;40.05;21.58;;;;;;;;;;5071901;28;20025;-58
2023/02/23 00:50:10;;;;;;;38.55;22.88;;;;;;;;;;5071750;28;20024;-58
2023/02/23 00:52:36;;;;;;;38.15;22.95;;;;;;;;;;5071318;28;20036;-64
2023/02/23 00:55:03;;;;;;;37.53;21.70;;;;;;;;;;5071929;28;20028;-58
2023/02/23 00:57:29;;;;;;;38.22;21.50;;;;;;;;;;5071519;28;20032;-58
2023/02/23 00:59:56;;;;;;;33.83;20.23;;;;;;;;;;5071768;28;20082;-59
2023/02/23 01:02:22;;;;;;;31.88;19.75;;;;;;;;;;5071401;28;20051;-58
2023/02/23 01:04:48;;;;;;;35.65;20.80;;;;;;;;;;5071513;28;20036;-58
2023/02/23 01:07:14;;;;;;;36.97;21.05;;;;;;;;;;5071201;28;20353;-58
2023/02/23 01:09:40;;;;;;;35.33;20.50;;;;;;;;;;5071583;28;20515;-58
2023/02/23 01:12:06;;;;;;;34.30;19.35;;;;;;;;;;5071028;28;20052;-59
2023/02/23 01:14:33;;;;;;;31.58;18.60;;;;;;;;;;5071178;28;20024;-58
2023/02/23 01:16:59;;;;;;;32.67;17.75;;;;;;;;;;5071148;28;20036;-63
2023/02/23 01:19:25;;;;;;;28.20;17.23;;;;;;;;;;5071372;28;20380;-61
2023/02/23 01:21:51;;;;;;;26.40;16.27;;;;;;;;;;5071074;28;20028;-59
2023/02/23 01:24:17;;;;;;;23.55;15.13;;;;;;;;;;5071313;28;20539;-58
2023/02/23 01:26:45;;;;;;;25.92;15.93;;;;;;;;;;5071269;28;20029;-59
2023/02/23 01:29:13;;;;;;;23.15;14.82;;;;;;;;;;5070541;28;20064;-58
2023/02/23 01:31:39;;;;;;;26.23;15.68;;;;;;;;;;5070120;28;20121;-58
2023/02/23 01:34:06;;;;;;;23.65;15.13;;;;;;;;;;5070434;28;20736;-58
2023/02/23 01:36:33;;;;;;;27.33;15.50;;;;;;;;;;5070497;28;20025;-58
2023/02/23 01:38:59;;;;;;;23.02;14.75;;;;;;;;;;5071062;28;20028;-58
2023/02/23 01:41:26;;;;;;;25.98;15.65;;;;;;;;;;5070598;28;20090;-59
2023/02/23 01:44:00;;;;;;;23.77;14.75;;;;;;;;;;5070793;28;20111;-59
2023/02/23 01:46:30;;;;;;;27.70;16.23;;;;;;;;;;5070442;28;20026;-59
2023/02/23 01:48:56;;;;;;;30.30;17.10;;;;;;;;;;5070789;28;20108;-63
2023/02/23 01:51:24;;;;;;;27.17;16.70;;;;;;;;;;5070292;28;20037;-58
2023/02/23 01:53:54;;;;;;;25.73;15.88;;;;;;;;;;5070667;28;20032;-58
2023/02/23 01:56:22;;;;;;;27.67;16.52;;;;;;;;;;5070595;28;20029;-58
2023/02/23 01:58:51;;;;;;;22.83;14.88;;;;;;;;;;5070322;28;20095;-59
2023/02/23 02:01:17;;;;;;;24.05;15.30;;;;;;;;;;5069497;28;20048;-59
2023/02/23 02:03:49;;;;;;;22.60;13.95;;;;;;;;;;5058883;28;20033;-60
2023/02/23 02:06:16;;;;;;;19.27;13.20;;;;;;;;;;5049816;28;20385;-58
2023/02/23 02:08:54;;;;;;;23.98;14.27;;;;;;;;;;5049598;28;20024;-58
2023/02/23 02:11:24;;;;;;;22.27;13.73;;;;;;;;;;5050030;28;20065;-58
2023/02/23 02:13:55;;;;;;;19.50;13.20;;;;;;;;;;5050000;28;20036;-58
2023/02/23 02:16:27;;;;;;;20.80;13.70;;;;;;;;;;5049935;28;20132;-58
2023/02/23 02:18:53;;;;;;;22.02;14.30;;;;;;;;;;5050193;28;20135;-58
2023/02/23 02:21:22;;;;;;;21.17;14.07;;;;;;;;;;5049210;28;20144;-58
2023/02/23 02:23:56;;;;;;;20.83;13.68;;;;;;;;;;5050100;28;20025;-58
2023/02/23 02:26:23;;;;;;;23.88;13.90;;;;;;;;;;5050382;28;20439;-58
2023/02/23 02:28:49;;;;;;;23.75;14.52;;;;;;;;;;5049860;28;20048;-58
2023/02/23 02:31:46;;;;;;;24.52;13.95;;;;;;;;;;5050164;28;20183;-59
2023/02/23 02:34:31;;;;;;;24.48;14.95;;;;;;;;;;5050185;28;20040;-58
2023/02/23 02:36:57;;;;;;;23.35;13.80;;;;;;;;;;5050436;28;20040;-61
2023/02/23 02:39:35;;;;;;;23.13;14.18;;;;;;;;;;5050356;28;20026;-59
2023/02/23 02:42:10;;;;;;;24.55;14.93;;;;;;;;;;5050267;28;20037;-58
2023/02/23 02:44:58;;;;;;;27.55;14.80;;;;;;;;;;5050088;28;20032;-59
2023/02/23 02:47:33;;;;;;;24.17;15.40;;;;;;;;;;5050026;28;20112;-60
2023/02/23 02:50:06;;;;;;;23.30;14.63;;;;;;;;;;5050190;28;20029;-59
2023/02/23 02:52:32;;;;;;;;;;;;;;;;;;5050513;28;20041;-58
2023/02/23 02:55:03;;;;;;;21.20;13.60;;;;;;;;;;5050090;28;19912;-62
2023/02/23 02:57:29;;;;;;;23.98;15.00;;;;;;;;;;5050201;28;20032;-59
2023/02/23 04:18:25;;;;;;;22.13;14.23;;;;;;;;;;5052820;28;20424;-58
2023/02/23 04:20:51;;;;;;;23.02;15.32;;;;;;;;;;5052481;28;20021;-59
2023/02/23 04:23:17;;;;;;;22.38;14.93;;;;;;;;;;5052441;28;20029;-60
2023/02/23 04:25:43;;;;;;;23.95;15.73;;;;;;;;;;5052188;28;20051;-67
2023/02/23 04:28:09;;;;;;;23.25;14.82;;;;;;;;;;5051994;28;20031;-59
2023/02/23 04:30:35;;;;;;;25.25;15.70;;;;;;;;;;5052122;28;20473;-59
2023/02/23 04:33:01;;;;;;;26.80;16.85;;;;;;;;;;5052062;28;20037;-59
2023/02/23 04:35:30;;;;;;;25.90;16.73;;;;;;;;;;5052044;28;20025;-60
2023/02/23 04:37:56;;;;;;;26.92;17.13;;;;;;;;;;5051992;28;20119;-59
2023/02/23 04:40:22;;;;;;;27.75;18.02;;;;;;;;;;5051768;28;20083;-60
2023/02/23 04:42:48;;;;;;;25.45;17.55;;;;;;;;;;5051441;28;20062;-59
2023/02/23 04:45:14;;;;;;;28.88;18.05;;;;;;;;;;5051539;28;20376;-58
2023/02/23 04:47:40;;;;;;;30.17;18.17;;;;;;;;;;5051291;28;20021;-58
2023/02/23 04:50:07;;;;;;;28.48;18.55;;;;;;;;;;5051828;28;20028;-59
2023/02/23 04:52:33;;;;;;;31.40;18.65;;;;;;;;;;5051421;28;20028;-58
2023/02/23 04:55:00;;;;;;;31.45;18.77;;;;;;;;;;5051481;28;20025;-59
2023/02/23 04:57:27;;;;;;;31.88;19.38;;;;;;;;;;5051241;28;20346;-59
2023/02/23 04:59:53;;;;;;;31.00;19.77;;;;;;;;;;5050874;28;20028;-60
2023/02/23 05:02:19;;;;;;;33.38;21.08;;;;;;;;;;5051334;28;20021;-60
2023/02/23 05:04:45;;;;;;;35.40;21.00;;;;;;;;;;5051426;28;20032;-59
2023/02/23 05:07:11;;;;;;;35.60;21.42;;;;;;;;;;5051470;28;20503;-58
2023/02/23 05:09:38;;;;;;;36.70;22.83;;;;;;;;;;5051507;28;20020;-59
2023/02/23 05:12:04;;;;;;;40.13;24.48;;;;;;;;;;5051088;28;20061;-69
2023/02/23 05:14:30;;;;;;;40.17;25.10;;;;;;;;;;5051037;28;20033;-60
2023/02/23 05:16:56;;;;;;;43.17;26.13;;;;;;;;;;5051267;28;20024;-59
2023/02/23 05:19:23;;;;;;;44.28;26.60;;;;;;;;;;5050770;28;20025;-59
2023/02/23 05:21:49;;;;;;;45.17;27.25;;;;;;;;;;5050726;28;20028;-61
2023/02/23 05:24:16;;;;;;;46.95;27.92;;;;;;;;;;5051099;28;20017;-62
2023/02/23 05:26:42;;;;;;;48.47;29.88;;;;;;;;;;5047767;28;20095;-61
2023/02/23 05:29:08;;;;;;;46.78;28.60;;;;;;;;;;5051091;28;20025;-59
2023/02/23 05:31:34;;;;;;;48.25;29.42;;;;;;;;;;5041467;28;20413;-69
2023/02/23 05:34:00;;;;;;;53.10;31.23;;;;;;;;;;5050688;28;20877;-59
2023/02/23 05:36:27;;;;;;;52.78;29.98;;;;;;;;;;5051182;28;20033;-70
2023/02/23 05:38:53;;;;;;;50.88;30.05;;;;;;;;;;5050585;28;20025;-60
2023/02/23 05:41:21;;;;;;;48.22;29.30;;;;;;;;;;5050988;28;20029;-60
2023/02/23 05:43:49;;;;;;;49.22;30.33;;;;;;;;;;5038097;28;20021;-59
2023/02/23 05:46:17;;;;;;;52.15;30.35;;;;;;;;;;5039093;28;20449;-60
2023/02/23 05:48:43;;;;;;;53.42;29.48;;;;;;;;;;5040275;28;20033;-59
2023/02/23 05:51:11;;;;;;;48.42;29.25;;;;;;;;;;5038762;28;20029;-65
2023/02/23 05:53:38;;;;;;;48.42;29.70;;;;;;;;;;5039615;28;20408;-60
2023/02/23 05:56:04;;;;;;;48.30;29.67;;;;;;;;;;5040693;28;20032;-59
2023/02/23 05:58:31;;;;;;;47.40;29.33;;;;;;;;;;5038952;28;20033;-60
2023/02/23 06:00:57;;;;;;;50.10;29.77;;;;;;;;;;5039248;28;20432;-59
2023/02/23 06:03:23;;;;;;;50.83;30.63;;;;;;;;;;5040269;28;20843;-59
2023/02/23 06:05:52;;;;;;;56.22;31.13;;;;;;;;;;5039683;28;20021;-58
2023/02/23 06:08:19;;;;;;;55.53;32.28;;;;;;;;;;5037741;28;20485;-59
2023/02/23 06:10:45;;;;;;;55.13;31.65;;;;;;;;;;5039567;28;20077;-60
2023/02/23 06:13:13;;;;;;;56.95;32.88;;;;;;;;;;5039802;28;20025;-59
2023/02/23 06:15:39;;;;;;;61.97;33.90;;;;;;;;;;5049863;28;20346;-64
2023/02/23 06:18:06;;;;;;;62.65;35.72;;;;;;;;;;5049969;28;20029;-59
2023/02/23 06:20:32;;;;;;;60.13;36.70;;;;;;;;;;5050392;28;20025;-60
2023/02/23 06:22:58;;;;;;;63.00;36.65;;;;;;;;;;5050149;28;20029;-70
2023/02/23 06:25:24;;;;;;;68.32;38.53;;;;;;;;;;5050621;28;20025;-59
2023/02/23 06:27:50;;;;;;;66.35;39.33;;;;;;;;;;5050262;28;20021;-59
2023/02/23 06:30:17;;;;;;;68.30;39.30;;;;;;;;;;5048684;28;20101;-59
2023/02/23 06:32:43;;;;;;;70.47;41.38;;;;;;;;;;5049426;28;20053;-63
2023/02/23 06:35:09;;;;;;;67.15;39.67;;;;;;;;;;5054029;28;20571;-59
2023/02/23 06:37:35;;;;;;;66.47;40.28;;;;;;;;;;5054149;28;20029;-59
2023/02/23 06:40:02;;;;;;;67.80;39.17;;;;;;;;;;5053996;28;20112;-59
2023/02/23 06:42:28;;;;;;;69.63;38.70;;;;;;;;;;5052971;28;20037;-59
2023/02/23 06:44:54;;;;;;;71.00;40.80;;;;;;;;;;5052994;28;20029;-58
2023/02/23 06:47:20;;;;;;;73.82;41.50;;;;;;;;;;5054135;28;20029;-66
2023/02/23 06:49:46;;;;;;;77.63;49.83;;;;;;;;;;5053787;28;20048;-64
2023/02/23 06:52:13;;;;;;;89.55;53.17;;;;;;;;;;5053656;28;20036;-58
2023/02/23 06:54:42;;;;;;;84.18;51.22;;;;;;;;;;5053458;28;20075;-58
2023/02/23 06:57:08;;;;;;;75.80;46.53;;;;;;;;;;5054034;28;20029;-65
2023/02/23 06:59:35;;;;;;;69.53;43.20;;;;;;;;;;5053954;28;20345;-60
2023/02/23 07:02:03;;;;;;;66.43;41.88;;;;;;;;;;5053741;28;20082;-63
2023/02/23 07:04:29;;;;;;;64.03;39.33;;;;;;;;;;5053537;28;20549;-70
2023/02/23 07:06:55;;;;;;;63.80;38.38;;;;;;;;;;5053853;28;20485;-60
2023/02/23 07:09:21;;;;;;;61.33;37.28;;;;;;;;;;5053542;28;20385;-60
2023/02/23 07:11:47;;;;;;;62.00;38.15;;;;;;;;;;5053447;28;20049;-58
2023/02/23 07:14:13;;;;;;;58.25;35.65;;;;;;;;;;5053354;28;20029;-59
2023/02/23 07:16:39;;;;;;;59.97;35.13;;;;;;;;;;5053119;28;20115;-59
2023/02/23 07:19:06;;;;;;;48.08;30.75;;;;;;;;;;5053329;28;20031;-59
2023/02/23 07:21:33;;;;;;;50.97;30.65;;;;;;;;;;5053090;28;20044;-59
2023/02/23 07:23:59;;;;;;;48.40;29.60;;;;;;;;;;5052835;28;20028;-66
2023/02/23 07:26:25;;;;;;;47.67;29.92;;;;;;;;;;5052895;28;20025;-65
2023/02/23 07:28:51;;;;;;;50.88;31.88;;;;;;;;;;5052438;28;20048;-59
2023/02/23 07:31:17;;;;;;;52.78;32.28;;;;;;;;;;5052926;28;20024;-58
2023/02/23 07:33:43;;;;;;;52.70;30.83;;;;;;;;;;5051308;28;20037;-59
2023/02/23 07:36:11;;;;;;;57.17;33.40;;;;;;;;;;5052252;28;20528;-58
2023/02/23 07:38:37;;;;;;;57.38;33.95;;;;;;;;;;5052567;28;20469;-59
2023/02/23 07:41:03;;;;;;;62.13;36.10;;;;;;;;;;5052459;28;20061;-71
2023/02/23 07:43:30;;;;;;;65.50;36.65;;;;;;;;;;5051610;28;20465;-59
2023/02/23 07:45:59;;;;;;;70.85;38.58;;;;;;;;;;5052651;28;20112;-62
2023/02/23 07:48:25;;;;;;;68.47;37.80;;;;;;;;;;5051877;28;20028;-58
2023/02/23 07:50:51;;;;;;;73.72;39.47;;;;;;;;;;5051076;28;20067;-59
2023/02/23 07:53:17;;;;;;;64.93;36.88;;;;;;;;;;5052555;28;20040;-60
2023/02/23 07:55:44;;;;;;;60.35;34.53;;;;;;;;;;5052528;28;20373;-61
2023/02/23 07:58:12;;;;;;;61.33;35.67;;;;;;;;;;5052362;28;20025;-59
2023/02/23 08:00:38;;;;;;;58.45;35.17;;;;;;;;;;5050896;28;20025;-63
2023/02/23 08:03:05;;;;;;;60.03;36.78;;;;;;;;;;5051967;28;20021;-59
2023/02/23 08:05:31;;;;;;;59.53;36.88;;;;;;;;;;5052202;28;20052;-60
2023/02/23 08:07:58;;;;;;;66.15;39.17;;;;;;;;;;5050682;28;20480;-60
2023/02/23 08:10:24;;;;;;;57.15;35.55;;;;;;;;;;5051931;28;20409;-59
2023/02/23 08:12:50;;;;;;;56.15;34.25;;;;;;;;;;5051430;28;20040;-69
2023/02/23 08:15:16;;;;;;;54.35;32.25;;;;;;;;;;5048276;28;20040;-58
2023/02/23 08:17:42;;;;;;;57.28;33.63;;;;;;;;;;5041125;28;20067;-58
2023/02/23 08:20:09;;;;;;;56.67;32.88;;;;;;;;;;5041008;28;20658;-58
2023/02/23 08:22:35;;;;;;;54.08;30.92;;;;;;;;;;5039418;28;20770;-58
2023/02/23 08:25:02;;;;;;;48.40;29.10;;;;;;;;;;5032201;28;20362;-66
2023/02/23 08:27:28;;;;;;;45.55;26.88;;;;;;;;;;5032288;28;20486;-69
2023/02/23 08:29:57;;;;;;;52.05;29.27;;;;;;;;;;5031466;28;20382;-58
2023/02/23 08:32:23;;;;;;;42.40;26.02;;;;;;;;;;5032106;28;20140;-66
2023/02/23 08:34:49;;;;;;;45.40;27.00;;;;;;;;;;5031662;28;20101;-60
2023/02/23 08:37:15;;;;;;;40.60;25.95;;;;;;;;;;5032133;28;20474;-59
2023/02/23 08:39:41;;;;;;;41.50;26.08;;;;;;;;;;5031699;28;20022;-67
2023/02/23 08:42:07;;;;;;;43.15;27.63;;;;;;;;;;5031727;28;20037;-58
2023/02/23 08:44:33;;;;;;;47.08;26.48;;;;;;;;;;5031505;28;20057;-59
2023/02/23 08:47:00;;;;;;;42.15;25.90;;;;;;;;;;5034144;28;20060;-62
2023/02/23 08:49:26;;;;;;;44.95;26.98;;;;;;;;;;5040619;28;20028;-59
2023/02/23 08:51:52;;;;;;;43.58;26.92;;;;;;;;;;5039297;28;20120;-58
2023/02/23 08:54:19;;;;;;;41.83;26.48;;;;;;;;;;5040768;28;20048;-60
2023/02/23 08:56:45;;;;;;;38.13;26.15;;;;;;;;;;5047945;28;20041;-60
2023/02/23 08:59:12;;;;;;;48.88;28.33;;;;;;;;;;5050590;28;20104;-63
2023/02/23 09:01:38;;;;;;;47.65;27.73;;;;;;;;;;5051456;28;20040;-60
2023/02/23 09:04:04;;;;;;;46.03;28.77;;;;;;;;;;5051213;28;20029;-59
2023/02/23 09:06:31;;;;;;;49.78;29.45;;;;;;;;;;5051558;28;20102;-60
2023/02/23 09:08:57;;;;;;;47.17;27.63;;;;;;;;;;5050302;28;20025;-62
2023/02/23 09:11:23;;;;;;;49.22;27.25;;;;;;;;;;5039400;28;20110;-58
2023/02/23 09:13:50;;;;;;;46.70;28.88;;;;;;;;;;5038441;28;20505;-59
2023/02/23 09:16:16;;;;;;;44.83;27.83;;;;;;;;;;5035467;28;20040;-63
2023/02/23 09:18:42;;;;;;;41.92;27.85;;;;;;;;;;5031000;28;20059;-60
2023/02/23 09:21:13;;;;;;;42.95;28.45;;;;;;;;;;5030932;28;20026;-63
2023/02/23 09:23:39;;;;;;;48.78;30.85;;;;;;;;;;5030657;28;20036;-67
2023/02/23 09:26:06;;;;;;;47.72;29.60;;;;;;;;;;5035399;28;20040;-61
2023/02/23 09:28:32;;;;;;;48.53;29.15;;;;;;;;;;5038670;28;20467;-61
2023/02/23 09:31:04;;;;;;;48.33;30.35;;;;;;;;;;5040285;28;20025;-59
2023/02/23 09:33:30;;;;;;;51.53;29.83;;;;;;;;;;5040238;28;20021;-67
2023/02/23 09:35:56;;;;;;;49.08;28.67;;;;;;;;;;5037613;28;20084;-63
2023/02/23 09:38:23;;;;;;;46.80;29.65;;;;;;;;;;5031005;28;20476;-60
2023/02/23 09:40:52;;;;;;;48.70;29.63;;;;;;;;;;5030694;28;20030;-60
2023/02/23 09:43:27;;;;;;;45.55;28.50;;;;;;;;;;5030673;28;20025;-59
2023/02/23 09:45:59;;;;;;;44.25;27.45;;;;;;;;;;5030018;28;20033;-60
2023/02/23 09:48:28;;;;;;;45.50;26.60;;;;;;;;;;5030380;28;20040;-59
2023/02/23 09:50:55;;;;;;;40.88;26.00;;;;;;;;;;5030097;28;20029;-62
2023/02/23 09:53:24;;;;;;;45.35;26.50;;;;;;;;;;5030342;28;20021;-60
2023/02/23 09:55:51;;;;;;;43.22;25.67;;;;;;;;;;5030350;28;20033;-70
2023/02/23 09:58:21;;;;;;;41.13;24.08;;;;;;;;;;5030410;28;20048;-59
2023/02/23 10:00:51;;;;;;;42.28;25.20;;;;;;;;;;5030530;28;20075;-67
2023/02/23 10:03:21;;;;;;;50.08;29.85;;;;;;;;;;5040136;28;20113;-60
2023/02/23 10:05:49;;;;;;;41.67;25.50;;;;;;;;;;5048574;28;20040;-70
2023/02/23 10:08:18;;;;;;;39.55;24.17;;;;;;;;;;5048744;28;20396;-60
2023/02/23 10:10:49;;;;;;;34.97;23.00;;;;;;;;;;5048952;28;20108;-60
2023/02/23 10:13:15;;;;;;;35.00;23.08;;;;;;;;;;5049373;28;20045;-63
2023/02/23 10:15:44;;;;;;;37.15;21.85;;;;;;;;;;5048690;28;20029;-59
2023/02/23 10:18:28;;;;;;;36.53;22.17;;;;;;;;;;5049899;28;20060;-59
2023/02/23 10:21:13;;;;;;;33.33;20.20;;;;;;;;;;5030104;28;20397;-63
2023/02/23 10:23:42;;;;;;;33.45;21.10;;;;;;;;;;5030045;28;20029;-62
2023/02/23 10:26:14;;;;;;;47.65;26.52;;;;;;;;;;5030111;28;20087;-63
2023/02/23 10:28:40;;;;;;;23.17;14.80;;;;;;;;;;5029650;28;20021;-64
2023/02/23 10:31:25;;;;;;;36.00;19.15;;;;;;;;;;5028456;28;20294;-62
2023/02/23 10:33:52;;;;;;;33.13;19.40;;;;;;;;;;5029455;28;20061;-62
2023/02/23 10:36:28;;;;;;;27.48;17.52;;;;;;;;;;5027968;28;20099;-62
2023/02/23 10:38:54;;;;;;;30.90;17.67;;;;;;;;;;5029443;28;20025;-66
2023/02/23 10:41:20;;;;;;;25.15;16.70;;;;;;;;;;5034832;28;20090;-64
2023/02/23 10:43:47;;;;;;;27.55;16.88;;;;;;;;;;5049683;28;20449;-63
2023/02/23 10:46:24;;;;;;;27.98;18.23;;;;;;;;;;5049713;28;20507;-65
2023/02/23 10:48:52;;;;;;;32.75;18.23;;;;;;;;;;5034389;28;20065;-62
2023/02/23 10:51:21;;;;;;;26.55;17.05;;;;;;;;;;5029442;28;20041;-65
2023/02/23 10:53:47;;;;;;;27.23;16.55;;;;;;;;;;5029540;28;20476;-63
2023/02/23 10:56:15;;;;;;;21.35;14.15;;;;;;;;;;5029953;28;20068;-63
2023/02/23 10:58:48;;;;;;;24.35;15.48;;;;;;;;;;5029809;28;20319;-62
2023/02/23 11:01:16;;;;;;;22.10;14.75;;;;;;;;;;5029615;28;20025;-63
2023/02/23 11:03:44;;;;;;;19.65;13.15;;;;;;;;;;5029704;28;20033;-62
2023/02/23 11:06:27;;;;;;;18.95;11.05;;;;;;;;;;5031396;28;20025;-60
2023/02/23 11:08:54;;;;;;;;;;;;;;;;;;5036068;28;20025;-60
2023/02/23 11:11:24;;;;;;;16.80;10.52;;;;;;;;;;5039081;28;20427;-60
2023/02/23 11:13:50;;;;;;;16.20;9.52;;;;;;;;;;5037449;28;20025;-61
2023/02/23 11:16:23;;;;;;;17.02;10.27;;;;;;;;;;5039090;28;20481;-60
2023/02/23 11:18:59;;;;;;;17.05;10.57;;;;;;;;;;5029500;28;20040;-61
2023/02/23 11:21:32;;;;;;;17.92;10.48;;;;;;;;;;5033007;28;20065;-61
2023/02/23 11:24:00;;;;;;;16.30;10.43;;;;;;;;;;5032647;28;20032;-65
2023/02/23 11:26:36;;;;;;;17.40;11.20;;;;;;;;;;5032774;28;20029;-62
2023/02/23 11:29:10;;;;;;;16.83;11.30;;;;;;;;;;5032876;28;20512;-67
2023/02/23 11:31:36;;;;;;;20.70;10.82;;;;;;;;;;5032631;28;20030;-61
2023/02/23 11:34:04;;;;;;;17.83;11.80;;;;;;;;;;5030893;28;20400;-64
2023/02/23 11:36:32;;;;;;;16.75;11.93;;;;;;;;;;5032521;28;20069;-63
2023/02/23 11:39:18;;;;;;;18.00;11.05;;;;;;;;;;5032556;28;20495;-59
2023/02/23 11:41:44;;;;;;;17.58;11.38;;;;;;;;;;5031702;28;20040;-59
2023/02/23 11:44:21;;;;;;;16.27;11.85;;;;;;;;;;5032310;28;20105;-61
2023/02/23 11:46:47;;;;;;;21.10;12.68;;;;;;;;;;5032091;28;20030;-59
2023/02/23 11:49:17;;;;;;;21.55;12.75;;;;;;;;;;5031765;28;20022;-61
2023/02/23 11:51:46;;;;;;;19.33;11.98;;;;;;;;;;5032668;28;20043;-59
2023/02/23 11:54:37;;;;;;;17.30;10.82;;;;;;;;;;5032262;28;20489;-59
2023/02/23 11:57:03;;;;;;;17.35;11.52;;;;;;;;;;5030329;28;20046;-59
2023/02/23 11:59:34;;;;;;;19.15;11.77;;;;;;;;;;5030042;28;20164;-62
2023/02/23 12:02:21;;;;;;;21.42;12.95;;;;;;;;;;5030066;28;20571;-71
2023/02/23 12:04:49;;;;;;;22.00;13.27;;;;;;;;;;5029596;28;20484;-61
2023/02/23 12:07:21;;;;;;;21.50;13.38;;;;;;;;;;5030243;28;20104;-66
2023/02/23 12:09:49;;;;;;;18.33;13.30;;;;;;;;;;5030390;28;20041;-71
2023/02/23 12:12:18;;;;;;;20.25;13.57;;;;;;;;;;5029967;28;20459;-69
2023/02/23 12:14:56;;;;;;;20.20;13.18;;;;;;;;;;5029595;28;20036;-69
2023/02/23 12:17:26;;;;;;;22.95;13.15;;;;;;;;;;5029380;28;20106;-66
2023/02/23 12:20:10;;;;;;;19.52;12.20;;;;;;;;;;5029620;28;20032;-60
2023/02/23 12:22:43;;;;;;;20.58;12.80;;;;;;;;;;5029426;28;20026;-70
2023/02/23 12:25:28;;;;;;;21.63;13.18;;;;;;;;;;5028949;28;20037;-60
2023/02/23 12:27:57;;;;;;;22.35;14.20;;;;;;;;;;5029414;28;20041;-60
2023/02/23 12:30:28;;;;;;;19.38;12.50;;;;;;;;;;5029103;28;20033;-68
2023/02/23 12:32:54;;;;;;;21.05;12.32;;;;;;;;;;5028746;28;20139;-59
2023/02/23 12:35:26;;;;;;;22.40;11.25;;;;;;;;;;5030682;28;20022;-64
2023/02/23 12:37:52;;;;;;;;;;;;;;;;;;5031356;28;20393;-66
2023/02/23 12:40:18;;;;;;;19.75;12.48;;;;;;;;;;5031315;28;19905;-61
2023/02/23 12:43:03;;;;;;;19.70;12.38;;;;;;;;;;5031846;28;20026;-70
2023/02/23 12:45:35;;;;;;;18.88;11.82;;;;;;;;;;5031849;28;20060;-68
2023/02/23 12:48:12;;;;;;;19.23;11.88;;;;;;;;;;5031742;28;20079;-62
2023/02/23 12:50:56;;;;;;;21.83;13.10;;;;;;;;;;5031785;28;20037;-61
2023/02/23 12:53:25;;;;;;;19.50;12.48;;;;;;;;;;5031427;28;20084;-60
2023/02/23 12:56:03;;;;;;;21.02;13.82;;;;;;;;;;5031047;28;20075;-61
2023/02/23 12:58:33;;;;;;;19.38;13.45;;;;;;;;;;5030885;28;20053;-61
2023/02/23 13:01:11;;;;;;;25.13;13.77;;;;;;;;;;5031217;28;20033;-68
2023/02/23 13:03:46;;;;;;;20.90;13.00;;;;;;;;;;5031191;28;20037;-63
2023/02/23 13:06:29;;;;;;;22.65;13.75;;;;;;;;;;5031292;28;20092;-66
2023/02/23 13:08:55;;;;;;;;;;;;;;;;;;5031760;28;20364;-59
2023/02/23 13:11:33;;;;;;;22.98;13.70;;;;;;;;;;5031035;28;20099;-59
2023/02/23 13:14:03;;;;;;;19.95;13.90;;;;;;;;;;5030975;28;20036;-61
2023/02/23 13:16:34;;;;;;;21.65;13.25;;;;;;;;;;5031020;28;20025;-72
2023/02/23 13:19:03;;;;;;;19.70;12.65;;;;;;;;;;5030931;28;20469;-60
2023/02/23 13:21:33;;;;;;;19.50;12.07;;;;;;;;;;5031051;28;20037;-60
2023/02/23 13:24:10;;;;;;;20.00;11.88;;;;;;;;;;5030501;28;20163;-73
2023/02/23 13:26:40;;;;;;;19.05;11.90;;;;;;;;;;5031063;28;20034;-61
2023/02/23 13:29:24;;;;;;;17.80;11.40;;;;;;;;;;5030786;28;20391;-69
2023/02/23 13:31:51;;;;;;;18.10;11.32;;;;;;;;;;5030948;28;20029;-73
2023/02/23 13:34:24;;;;;;;16.55;10.43;;;;;;;;;;5030538;28;20029;-60
2023/02/23 13:36:51;;;;;;;17.50;10.95;;;;;;;;;;5030254;28;20076;-61
2023/02/23 13:39:26;;;;;;;18.15;11.50;;;;;;;;;;5030515;28;20028;-67
2023/02/23 13:41:52;;;;;;;18.27;11.43;;;;;;;;;;5030181;28;20122;-60
2023/02/23 13:44:18;;;;;;;18.52;10.63;;;;;;;;;;5041655;28;20056;-72
2023/02/23 13:46:51;;;;;;;20.35;9.73;;;;;;;;;;5050002;28;20078;-59
2023/02/23 13:49:27;;;;;;;16.90;9.85;;;;;;;;;;5049630;28;20025;-67
2023/02/23 13:51:58;;;;;;;13.73;9.70;;;;;;;;;;5050343;28;20029;-61
2023/02/23 13:54:30;;;;;;;17.60;10.43;;;;;;;;;;5050310;28;20024;-60
2023/02/23 13:56:58;;;;;;;14.30;9.60;;;;;;;;;;5050526;28;20051;-60
2023/02/23 13:59:29;;;;;;;15.25;9.85;;;;;;;;;;5049662;28;20370;-59
2023/02/23 14:01:55;;;;;;;16.60;9.88;;;;;;;;;;5050442;28;20103;-62
2023/02/23 14:04:23;;;;;;;16.50;9.52;;;;;;;;;;5049660;28;20032;-72
2023/02/23 14:06:52;;;;;;;16.63;10.07;;;;;;;;;;5050029;28;20029;-71
2023/02/23 14:09:38;;;;;;;15.30;9.82;;;;;;;;;;5049869;28;20116;-62
2023/02/23 14:12:04;;;;;;;16.70;9.63;;;;;;;;;;5049980;28;20069;-60
2023/02/23 14:14:30;;;;;;;17.45;10.15;;;;;;;;;;5050462;28;20082;-61
2023/02/23 14:17:29;;;;;;;15.35;9.57;;;;;;;;;;5050125;28;20029;-62
2023/02/23 14:20:10;;;;;;;15.32;9.23;;;;;;;;;;5047023;28;20037;-67
2023/02/23 14:22:36;;;;;;;14.32;9.10;;;;;;;;;;5047290;28;20041;-60
2023/02/23 14:25:21;;;;;;;15.18;9.07;;;;;;;;;;5046869;28;20036;-60
2023/02/23 14:27:59;;;;;;;18.85;10.20;;;;;;;;;;5047691;28;20469;-60
2023/02/23 14:30:26;;;;;;;14.30;9.07;;;;;;;;;;5046971;28;20057;-60
2023/02/23 14:32:52;;;;;;;16.40;9.43;;;;;;;;;;5045993;28;20063;-69
2023/02/23 14:35:35;;;;;;;14.75;8.57;;;;;;;;;;5045939;28;20102;-71
2023/02/23 14:38:07;;;;;;;14.88;9.40;;;;;;;;;;5046906;28;20035;-71
2023/02/23 14:40:34;;;;;;;15.35;8.88;;;;;;;;;;5046041;28;20115;-71
2023/02/23 14:43:01;;;;;;;17.30;9.48;;;;;;;;;;5046922;28;20566;-62
2023/02/23 14:45:29;;;;;;;15.98;10.13;;;;;;;;;;5045670;28;20029;-62
2023/02/23 14:47:58;;;;;;;16.23;9.85;;;;;;;;;;5045881;28;20029;-62
2023/02/23 14:50:31;;;;;;;22.23;11.18;;;;;;;;;;5046899;28;20125;-61
2023/02/23 14:52:59;;;;;;;16.73;9.82;;;;;;;;;;5038916;28;20037;-67
2023/02/23 14:55:29;;;;;;;17.13;9.30;;;;;;;;;;5030852;28;20057;-63
2023/02/23 14:57:55;;;;;;;17.17;9.52;;;;;;;;;;5032531;28;20108;-64
2023/02/23 15:00:22;;;;;;;17.30;9.25;;;;;;;;;;5032843;28;20100;-63
2023/02/23 15:02:59;;;;;;;15.73;8.68;;;;;;;;;;5032969;28;20033;-64
2023/02/23 15:05:26;;;;;;;18.95;8.90;;;;;;;;;;5032436;28;20029;-64
2023/02/23 15:07:53;;;;;;;18.30;8.90;;;;;;;;;;5032491;28;20033;-63
2023/02/23 15:10:38;;;;;;;18.80;9.27;;;;;;;;;;5043323;28;20025;-76
2023/02/23 15:13:20;;;;;;;21.52;9.85;;;;;;;;;;5051892;28;20037;-63
2023/02/23 15:15:48;;;;;;;;;;;;;;;;;;5051866;28;20452;-72
2023/02/23 15:18:21;;;;;;;16.27;9.10;;;;;;;;;;5051837;28;19912;-67
2023/02/23 15:20:48;;;;;;;15.75;8.90;;;;;;;;;;5052206;28;20033;-63
2023/02/23 15:23:16;;;;;;;12.85;8.07;;;;;;;;;;5051901;28;20021;-62
2023/02/23 15:25:46;;;;;;;17.83;8.85;;;;;;;;;;5052100;28;20056;-63
2023/02/23 15:28:24;;;;;;;16.65;8.98;;;;;;;;;;5048460;28;20028;-67
2023/02/23 15:30:51;;;;;;;16.52;8.77;;;;;;;;;;5042631;28;20040;-69
2023/02/23 15:33:22;;;;;;;18.73;9.10;;;;;;;;;;5041114;28;20178;-63
2023/02/23 15:35:57;;;;;;;16.35;9.27;;;;;;;;;;5040597;28;20021;-63
2023/02/23 15:38:28;;;;;;;21.25;11.20;;;;;;;;;;5041631;28;20481;-73
2023/02/23 15:40:56;;;;;;;22.45;11.45;;;;;;;;;;5040582;28;20485;-66
2023/02/23 15:43:22;;;;;;;15.73;8.93;;;;;;;;;;5041469;28;20119;-63
2023/02/23 15:45:50;;;;;;;22.83;10.02;;;;;;;;;;5042271;28;20546;-64
2023/02/23 15:48:19;;;;;;;17.17;9.55;;;;;;;;;;5040241;28;20019;-73
2023/02/23 15:50:51;;;;;;;18.17;9.70;;;;;;;;;;5039905;28;20025;-63